Terminal Aerodrome Forecast
Issued by NWS Twin Cities, MN

Home | Current Version | Previous Version | Text Only | Print | Product List | Glossary Off
Versions: 1 2 3 4 5 6 7 8 9 10 11 12 13 14 15 16 17

182
FTUS43 KMPX 220918 AAA
TAFEAU
TAF AMD
KEAU 220918Z 2209/2306 00000KT 2SM BR OVC006
      TEMPO 2209/2213 1SM BR OVC002
     FM221400 00000KT P6SM BKN012
     FM221800 VRB03KT P6SM BKN035=

USA.gov is the U.S. government's official web portal to all federal, state and local government web resources and services.